createdAt,value
2018-11-22T00:01:51.191Z,75.25
2018-11-22T00:04:19.768Z,62.75
2018-11-22T00:07:07.670Z,75.72
2018-11-22T00:09:35.873Z,65.00
2018-11-22T00:12:04.421Z,70.35
2018-11-22T00:14:32.642Z,67.87
2018-11-22T00:17:01.544Z,70.20
2018-11-22T00:19:31.962Z,67.10
2018-11-22T00:22:00.238Z,68.87
2018-11-22T00:24:29.065Z,78.55
2018-11-22T00:26:57.691Z,74.42
2018-11-22T00:29:25.891Z,69.90
2018-11-22T00:31:55.028Z,65.72
2018-11-22T00:34:23.572Z,63.92
2018-11-22T00:36:51.778Z,63.70
2018-11-22T00:39:20.259Z,68.07
2018-11-22T00:41:48.509Z,63.05
2018-11-22T00:44:17.101Z,73.57
2018-11-22T00:46:45.991Z,62.13
2018-11-22T00:49:14.233Z,64.80
2018-11-22T00:51:43.187Z,69.47
2018-11-22T00:54:11.438Z,70.72
2018-11-22T00:56:40.008Z,73.57
2018-11-22T00:59:08.646Z,65.57
2018-11-22T01:01:36.855Z,68.28
2018-11-22T01:04:05.616Z,62.45
2018-11-22T01:06:34.445Z,65.17
2018-11-22T01:09:02.648Z,68.85
2018-11-22T01:11:31.159Z,70.15
2018-11-22T01:13:59.724Z,57.20
2018-11-22T01:16:47.615Z,69.77
2018-11-22T01:19:16.143Z,70.62
2018-11-22T01:21:44.345Z,67.32
2018-11-22T01:24:12.583Z,63.35
2018-11-22T01:26:41.542Z,63.90
2018-11-22T01:29:09.743Z,66.53
2018-11-22T01:31:38.521Z,69.77
2018-11-22T01:34:07.504Z,68.28
2018-11-22T01:36:35.699Z,63.05
2018-11-22T01:39:04.457Z,71.30
2018-11-22T01:41:33.021Z,61.98
2018-11-22T01:44:01.228Z,60.33
2018-11-22T01:46:30.066Z,75.60
2018-11-22T01:48:58.316Z,69.97
2018-11-22T01:51:26.807Z,74.17
2018-11-22T01:53:55.405Z,65.25
2018-11-22T01:56:23.971Z,68.65
2018-11-22T01:58:53.027Z,61.23
2018-11-22T02:01:21.928Z,61.63
2018-11-22T02:04:09.799Z,69.35
2018-11-22T02:06:57.717Z,65.47
2018-11-22T02:09:26.344Z,65.00
2018-11-22T02:11:55.326Z,66.65
2018-11-22T02:14:23.517Z,65.78
2018-11-22T02:16:51.829Z,68.35
2018-11-22T02:19:20.395Z,55.10
2018-11-22T02:21:48.976Z,58.10
2018-11-22T02:24:17.244Z,60.12
2018-11-22T02:26:45.502Z,60.83
2018-11-22T02:29:14.076Z,58.83
2018-11-22T02:31:42.709Z,60.40
2018-11-22T02:34:11.229Z,55.78
2018-11-22T02:36:39.717Z,55.83
2018-11-22T02:39:09.377Z,56.45
2018-11-22T02:41:37.668Z,56.90
2018-11-22T02:44:06.349Z,63.87
2018-11-22T02:46:34.614Z,64.67
2018-11-22T02:49:03.123Z,59.03
2018-11-22T02:51:31.696Z,54.50
2018-11-22T02:54:00.506Z,65.30
2018-11-22T02:56:29.667Z,53.05
2018-11-22T02:58:57.996Z,59.38
2018-11-22T03:01:45.865Z,62.05
2018-11-22T03:04:14.825Z,65.50
2018-11-22T03:07:02.683Z,57.75
2018-11-22T03:09:50.298Z,58.15
2018-11-22T03:12:18.876Z,68.75
2018-11-22T03:14:48.163Z,54.18
2018-11-22T03:17:16.387Z,64.67
2018-11-22T03:20:04.528Z,60.48
2018-11-22T03:22:33.015Z,55.12
2018-11-22T03:25:01.550Z,65.75
2018-11-22T03:27:30.061Z,66.82
2018-11-22T03:29:58.956Z,60.30
2018-11-22T03:32:27.157Z,61.70
2018-11-22T03:34:55.412Z,65.57
2018-11-22T03:37:25.001Z,59.15
2018-11-22T03:39:53.768Z,68.92
2018-11-22T03:42:22.712Z,71.85
2018-11-22T03:44:50.941Z,65.08
2018-11-22T03:47:19.572Z,60.78
2018-11-22T03:49:50.508Z,59.75
2018-11-22T03:52:17.065Z,62.38
2018-11-22T03:54:45.259Z,68.83
2018-11-22T03:57:13.583Z,68.52
2018-11-22T03:59:41.841Z,57.73
2018-11-22T04:02:10.745Z,61.98
2018-11-22T04:04:38.965Z,58.83
2018-11-22T04:07:07.178Z,61.35
2018-11-22T04:09:35.707Z,67.03
2018-11-22T04:12:03.992Z,66.10
2018-11-22T04:14:32.277Z,63.08
2018-11-22T04:17:01.069Z,58.92
2018-11-22T04:19:29.267Z,62.08
2018-11-22T04:21:58.056Z,66.57
2018-11-22T04:24:26.290Z,66.33
2018-11-22T04:26:55.076Z,62.60
2018-11-22T04:29:23.313Z,52.85
2018-11-22T04:31:52.517Z,66.62
2018-11-22T04:34:20.776Z,56.18
2018-11-22T04:36:49.707Z,56.33
2018-11-22T04:39:18.280Z,60.00
2018-11-22T04:41:46.811Z,55.90
2018-11-22T04:44:15.351Z,66.02
2018-11-22T04:46:43.570Z,54.53
2018-11-22T04:49:12.417Z,63.35
2018-11-22T04:51:40.612Z,61.83
2018-11-22T04:54:08.824Z,61.23
2018-11-22T04:56:37.029Z,56.92
2018-11-22T04:59:05.644Z,60.65
2018-11-22T05:01:34.518Z,63.35
2018-11-22T05:04:02.802Z,60.50
2018-11-22T05:06:31.482Z,67.25
2018-11-22T05:09:00.022Z,60.50
2018-11-22T05:11:28.216Z,59.90
2018-11-22T05:13:57.126Z,60.80
2018-11-22T05:16:26.069Z,59.00
2018-11-22T05:18:54.618Z,63.42
2018-11-22T05:21:23.123Z,64.15
2018-11-22T05:23:52.100Z,63.40
2018-11-22T05:26:20.375Z,57.53
2018-11-22T05:28:49.056Z,62.65
2018-11-22T05:31:17.259Z,65.12
2018-11-22T05:33:46.152Z,63.35
2018-11-22T05:36:14.410Z,66.82
2018-11-22T05:38:42.691Z,67.53
2018-11-22T05:41:11.308Z,58.15
2018-11-22T05:43:58.922Z,61.05
2018-11-22T05:46:27.453Z,60.55
2018-11-22T05:48:56.343Z,54.05
2018-11-22T05:51:25.233Z,71.17
2018-11-22T05:53:54.125Z,61.77
2018-11-22T05:56:22.724Z,58.85
2018-11-22T05:58:50.928Z,64.70
2018-11-22T06:01:19.524Z,61.73
2018-11-22T06:03:48.059Z,63.70
2018-11-22T06:06:16.531Z,61.65
2018-11-22T06:08:44.747Z,70.35
2018-11-22T06:11:13.081Z,66.40
2018-11-22T06:13:41.615Z,68.35
2018-11-22T06:16:10.500Z,67.45
2018-11-22T06:18:39.052Z,58.20
2018-11-22T06:21:07.267Z,59.83
2018-11-22T06:23:35.796Z,67.08
2018-11-22T06:26:04.045Z,73.62
2018-11-22T06:28:32.539Z,65.10
2018-11-22T06:31:01.570Z,69.17
2018-11-22T06:33:29.356Z,61.50
2018-11-22T06:35:57.844Z,69.53
2018-11-22T06:38:26.061Z,62.75
2018-11-22T06:40:54.271Z,65.97
2018-11-22T06:43:23.166Z,64.82
2018-11-22T06:45:51.673Z,62.25
2018-11-22T06:48:20.264Z,62.15
2018-11-22T06:50:48.856Z,71.02
2018-11-22T06:53:17.322Z,74.20
2018-11-22T06:55:51.520Z,60.52
2018-11-22T06:58:14.623Z,68.05
2018-11-22T07:01:02.223Z,65.50
2018-11-22T07:03:31.087Z,65.12
2018-11-22T07:05:59.777Z,75.85
2018-11-22T07:08:27.981Z,65.17
2018-11-22T07:10:56.551Z,60.15
2018-11-22T07:13:25.349Z,61.15
2018-11-22T07:16:13.297Z,61.98
2018-11-22T07:18:41.545Z,58.63
2018-11-22T07:21:10.443Z,65.35
2018-11-22T07:23:38.919Z,63.95
2018-11-22T07:26:07.814Z,72.50
2018-11-22T07:28:36.469Z,70.37
2018-11-22T07:31:04.964Z,65.60
2018-11-22T07:33:38.107Z,65.67
2018-11-22T07:36:02.174Z,68.57
2018-11-22T07:38:30.715Z,65.10
2018-11-22T07:40:59.645Z,73.17
2018-11-22T07:43:29.219Z,64.22
2018-11-22T07:45:57.457Z,79.70
2018-11-22T07:48:25.707Z,76.75
2018-11-22T07:50:54.881Z,65.08
2018-11-22T07:53:42.499Z,66.02
2018-11-22T07:56:11.025Z,67.22
2018-11-22T07:58:39.862Z,71.05
2018-11-22T08:01:08.060Z,77.03
2018-11-22T08:03:36.260Z,78.30
2018-11-22T08:06:04.611Z,74.62
2018-11-22T08:08:32.926Z,74.75
2018-11-22T08:11:01.233Z,76.12
2018-11-22T08:13:29.920Z,76.72
2018-11-22T08:16:18.093Z,79.65
2018-11-22T08:18:46.997Z,83.75
2018-11-22T08:21:15.549Z,78.85
2018-11-22T08:23:43.892Z,72.30
2018-11-22T08:26:12.167Z,89.03
2018-11-22T08:28:40.777Z,72.35
2018-11-22T08:31:09.259Z,70.03
2018-11-22T08:33:37.754Z,80.62
2018-11-22T08:36:06.836Z,82.02
2018-11-22T08:38:35.120Z,83.27
2018-11-22T08:41:03.462Z,79.95
2018-11-22T08:43:31.705Z,83.50
2018-11-22T08:46:00.026Z,97.65
2018-11-22T08:48:29.004Z,75.45
2018-11-22T08:50:57.843Z,82.92
2018-11-22T08:53:27.328Z,75.62
2018-11-22T08:55:56.195Z,77.92
2018-11-22T08:58:24.879Z,89.50
2018-11-22T09:00:53.368Z,84.35
2018-11-22T09:03:21.655Z,80.20
2018-11-22T09:05:50.176Z,84.13
2018-11-22T09:08:18.412Z,87.40
2018-11-22T09:10:47.024Z,87.42
2018-11-22T09:13:15.681Z,75.90
2018-11-22T09:15:43.950Z,74.77
2018-11-22T09:18:12.547Z,81.02
2018-11-22T09:20:41.100Z,94.30
2018-11-22T09:23:09.340Z,86.15
2018-11-22T09:25:37.574Z,93.15
2018-11-22T09:28:05.921Z,82.37
2018-11-22T09:30:34.963Z,80.53
2018-11-22T09:33:03.153Z,77.97
2018-11-22T09:35:51.121Z,76.72
2018-11-22T09:38:19.436Z,75.70
2018-11-22T09:40:47.995Z,80.72
2018-11-22T09:43:16.652Z,75.75
2018-11-22T09:45:44.892Z,82.85
2018-11-22T09:48:32.538Z,90.60
2018-11-22T09:51:00.739Z,83.25
2018-11-22T09:53:29.367Z,80.67
2018-11-22T09:55:57.984Z,84.25
2018-11-22T09:58:26.546Z,89.30
2018-11-22T10:01:14.198Z,73.17
2018-11-22T10:03:42.731Z,79.40
2018-11-22T10:06:11.294Z,67.22
2018-11-22T10:08:40.353Z,72.65
2018-11-22T10:11:08.479Z,78.02
2018-11-22T10:13:37.097Z,76.55
2018-11-22T10:16:05.542Z,77.75
2018-11-22T10:18:34.191Z,73.07
2018-11-22T10:21:02.606Z,71.82
2018-11-22T10:23:31.111Z,78.50
2018-11-22T10:25:59.707Z,72.42
2018-11-22T10:28:27.950Z,72.70
2018-11-22T10:30:56.569Z,79.00
2018-11-22T10:33:44.207Z,73.12
2018-11-22T10:36:12.518Z,73.47
2018-11-22T10:38:40.754Z,80.95
2018-11-22T10:41:09.568Z,77.00
2018-11-22T10:43:39.174Z,81.20
2018-11-22T10:46:07.383Z,72.78
2018-11-22T10:48:36.028Z,80.57
2018-11-22T10:51:04.376Z,79.20
2018-11-22T10:53:32.876Z,80.00
2018-11-22T10:56:01.116Z,71.20
2018-11-22T10:58:29.657Z,80.22
2018-11-22T11:01:17.593Z,76.60
2018-11-22T11:04:04.885Z,89.20
2018-11-22T11:06:52.507Z,81.30
2018-11-22T11:09:21.013Z,78.25
2018-11-22T11:11:49.272Z,79.20
2018-11-22T11:14:17.482Z,83.15
2018-11-22T11:16:46.698Z,74.05
2018-11-22T11:19:15.243Z,76.50
2018-11-22T11:21:44.117Z,73.85
2018-11-22T11:24:12.600Z,76.57
2018-11-22T11:26:41.103Z,82.67
2018-11-22T11:29:12.786Z,85.53
2018-11-22T11:31:38.308Z,81.05
2018-11-22T11:34:06.523Z,84.17
2018-11-22T11:36:34.726Z,77.62
2018-11-22T11:39:22.351Z,76.82
2018-11-22T11:41:50.858Z,69.80
2018-11-22T11:44:19.096Z,79.70
2018-11-22T11:46:47.932Z,80.47
2018-11-22T11:49:16.470Z,81.35
2018-11-22T11:51:44.724Z,69.97
2018-11-22T11:54:13.673Z,84.87
2018-11-22T11:56:42.223Z,72.32
2018-11-22T11:59:11.111Z,75.53
2018-11-22T12:01:59.055Z,77.43
2018-11-22T12:04:27.273Z,84.87
2018-11-22T12:06:55.503Z,83.93
2018-11-22T12:09:24.378Z,78.97
2018-11-22T12:11:52.664Z,86.80
2018-11-22T12:14:21.347Z,82.30
2018-11-22T12:16:50.588Z,76.53
2018-11-22T12:19:18.783Z,74.20
2018-11-22T12:21:47.024Z,78.90
2018-11-22T12:24:15.221Z,74.23
2018-11-22T12:26:43.448Z,78.23
2018-11-22T12:29:11.662Z,77.53
2018-11-22T12:31:41.133Z,81.57
2018-11-22T12:34:28.812Z,84.03
2018-11-22T12:37:16.992Z,90.40
2018-11-22T12:39:45.497Z,76.77
2018-11-22T12:42:33.119Z,79.70
2018-11-22T12:45:20.428Z,88.20
2018-11-22T12:47:48.982Z,92.53
2018-11-22T12:50:17.219Z,82.73
2018-11-22T12:52:45.828Z,78.70
2018-11-22T12:55:14.975Z,80.23
2018-11-22T12:58:02.888Z,79.40
2018-11-22T13:00:31.130Z,73.07
2018-11-22T13:02:59.330Z,73.70
2018-11-22T13:05:27.907Z,86.57
2018-11-22T13:07:56.095Z,76.07
2018-11-22T13:10:24.336Z,72.40
2018-11-22T13:12:53.060Z,81.10
2018-11-22T13:15:21.984Z,86.03
2018-11-22T13:17:50.819Z,95.53
2018-11-22T13:20:20.682Z,87.53
2018-11-22T13:22:49.259Z,79.63
2018-11-22T13:25:19.540Z,91.87
2018-11-22T13:27:47.991Z,90.73
2018-11-22T13:30:21.223Z,98.47
2018-11-22T13:32:50.097Z,92.63
2018-11-22T13:35:19.081Z,86.97
2018-11-22T13:37:48.379Z,89.20
2018-11-22T13:40:17.442Z,89.50
2018-11-22T13:42:46.511Z,91.50
2018-11-22T13:45:17.211Z,83.77
2018-11-22T13:47:46.472Z,96.23
2018-11-22T13:50:17.101Z,93.33
2018-11-22T13:52:46.427Z,95.73
2018-11-22T13:55:15.678Z,94.27
2018-11-22T13:57:43.697Z,98.67
2018-11-22T14:00:22.820Z,100.87
2018-11-22T14:02:52.617Z,91.03
2018-11-22T14:05:20.828Z,101.03
2018-11-22T14:07:49.405Z,98.90
2018-11-22T14:10:18.883Z,97.70
2018-11-22T14:12:47.709Z,100.13
2018-11-22T14:15:35.354Z,85.20
2018-11-22T14:18:04.913Z,93.37
2018-11-22T14:20:34.431Z,95.30
2018-11-22T14:23:02.971Z,97.37
2018-11-22T14:25:31.713Z,80.77
2018-11-22T14:28:00.498Z,92.93
2018-11-22T14:30:33.367Z,91.13
2018-11-22T14:33:01.991Z,89.83
2018-11-22T14:35:30.181Z,89.13
2018-11-22T14:37:58.706Z,82.00
2018-11-22T14:40:28.460Z,88.37
2018-11-22T14:42:57.367Z,86.30
2018-11-22T14:45:26.188Z,92.87
2018-11-22T14:47:55.825Z,81.17
2018-11-22T14:50:53.209Z,80.87
2018-11-22T14:53:22.676Z,90.87
2018-11-22T14:55:50.874Z,84.95
2018-11-22T14:58:19.072Z,85.00
2018-11-22T15:00:47.552Z,85.83
2018-11-22T15:03:15.764Z,78.27
2018-11-22T15:05:44.056Z,78.92
2018-11-22T15:08:12.867Z,78.40
2018-11-22T15:10:41.078Z,83.00
2018-11-22T15:13:09.436Z,87.10
2018-11-22T15:15:37.629Z,86.57
2018-11-22T15:18:05.895Z,83.17
2018-11-22T15:20:34.490Z,89.93
2018-11-22T15:23:02.783Z,89.30
2018-11-22T15:25:31.269Z,81.43
2018-11-22T15:28:00.105Z,88.20
2018-11-22T15:30:47.986Z,87.93
2018-11-22T15:33:16.659Z,85.40
2018-11-22T15:35:44.844Z,75.70
2018-11-22T15:38:13.188Z,88.67
2018-11-22T15:40:41.792Z,97.63
2018-11-22T15:43:10.750Z,75.10
2018-11-22T15:45:39.328Z,77.87
2018-11-22T15:48:07.943Z,93.05
2018-11-22T15:50:36.449Z,112.10
2018-11-22T15:53:04.698Z,109.00
2018-11-22T15:55:33.470Z,105.07
2018-11-22T15:58:21.354Z,106.37
2018-11-22T16:00:50.378Z,97.72
2018-11-22T16:03:19.333Z,102.53
2018-11-22T16:05:48.316Z,105.70
2018-11-22T16:08:16.881Z,100.87
2018-11-22T16:10:45.808Z,92.62
2018-11-22T16:13:14.397Z,95.80
2018-11-22T16:15:45.741Z,117.08
2018-11-22T16:18:13.959Z,113.17
2018-11-22T16:20:42.535Z,94.00
2018-11-22T16:23:11.080Z,97.08
2018-11-22T16:25:39.290Z,94.83
2018-11-22T16:28:26.946Z,99.25
2018-11-22T16:30:55.497Z,93.15
2018-11-22T16:33:23.730Z,87.72
2018-11-22T16:35:52.529Z,103.65
2018-11-22T16:38:40.192Z,131.55
2018-11-22T16:41:08.408Z,99.72
2018-11-22T16:43:56.081Z,89.47
2018-11-22T16:46:25.491Z,96.08
2018-11-22T16:48:54.070Z,104.12
2018-11-22T16:51:22.648Z,99.13
2018-11-22T16:53:51.616Z,126.95
2018-11-22T16:56:20.206Z,103.78
2018-11-22T16:58:49.066Z,91.63
2018-11-22T17:01:17.579Z,111.55
2018-11-22T17:03:45.809Z,105.80
2018-11-22T17:06:14.431Z,89.62
2018-11-22T17:08:44.259Z,126.47
2018-11-22T17:11:12.473Z,123.53
2018-11-22T17:13:40.694Z,101.55
2018-11-22T17:16:08.930Z,112.15
2018-11-22T17:18:38.336Z,118.20
2018-11-22T17:21:06.687Z,128.05
2018-11-22T17:23:35.288Z,113.80
2018-11-22T17:26:03.770Z,108.87
2018-11-22T17:28:32.351Z,102.55
2018-11-22T17:31:01.317Z,117.37
2018-11-22T17:33:29.999Z,116.40
2018-11-22T17:35:58.578Z,111.95
2018-11-22T17:38:27.163Z,115.47
2018-11-22T17:40:56.295Z,128.55
2018-11-22T17:43:24.542Z,108.07
2018-11-22T17:45:53.800Z,118.70
2018-11-22T17:48:22.709Z,119.35
2018-11-22T17:50:51.034Z,120.92
2018-11-22T17:53:19.983Z,118.65
2018-11-22T17:55:48.621Z,114.57
2018-11-22T17:58:36.601Z,124.20
2018-11-22T18:01:05.273Z,100.78
2018-11-22T18:03:34.258Z,106.05
2018-11-22T18:06:02.489Z,114.70
2018-11-22T18:08:31.004Z,119.70
2018-11-22T18:10:59.245Z,116.35
2018-11-22T18:13:27.787Z,120.62
2018-11-22T18:15:57.694Z,118.37
2018-11-22T18:18:26.639Z,125.02
2018-11-22T18:20:55.240Z,112.88
2018-11-22T18:23:23.582Z,106.47
2018-11-22T18:25:53.242Z,118.53
2018-11-22T18:28:22.348Z,121.90
2018-11-22T18:30:51.302Z,127.45
2018-11-22T18:33:19.597Z,127.75
2018-11-22T18:36:07.544Z,135.15
2018-11-22T18:38:35.818Z,113.20
2018-11-22T18:41:04.735Z,123.25
2018-11-22T18:43:35.376Z,117.72
2018-11-22T18:46:02.519Z,131.67
2018-11-22T18:48:30.731Z,147.05
2018-11-22T18:50:59.011Z,130.97
2018-11-22T18:53:27.267Z,139.80
2018-11-22T18:56:14.972Z,144.07
2018-11-22T18:58:44.111Z,141.55
2018-11-22T19:01:31.768Z,132.63
2018-11-22T19:04:00.658Z,135.00
2018-11-22T19:06:28.962Z,133.72
2018-11-22T19:09:16.594Z,148.32
2018-11-22T19:11:44.822Z,142.32
2018-11-22T19:14:32.456Z,146.45
2018-11-22T19:17:01.026Z,145.35
2018-11-22T19:19:30.122Z,133.90
2018-11-22T19:21:59.587Z,149.85
2018-11-22T19:24:47.264Z,152.78
2018-11-22T19:27:16.169Z,140.18
2018-11-22T19:29:44.737Z,158.07
2018-11-22T19:32:13.385Z,139.20
2018-11-22T19:34:41.652Z,144.30
2018-11-22T19:37:09.918Z,143.75
2018-11-22T19:39:38.171Z,118.80
2018-11-22T19:42:26.265Z,145.05
2018-11-22T19:44:54.883Z,143.10
2018-11-22T19:47:24.540Z,148.75
2018-11-22T19:49:52.943Z,152.72
2018-11-22T19:52:21.553Z,143.30
2018-11-22T19:54:50.527Z,144.45
2018-11-22T19:57:19.174Z,168.60
2018-11-22T19:59:48.075Z,154.20
2018-11-22T20:02:16.626Z,146.80
2018-11-22T20:04:45.142Z,146.82
2018-11-22T20:07:32.795Z,161.57
2018-11-22T20:10:22.082Z,167.22
2018-11-22T20:12:50.357Z,181.80
2018-11-22T20:15:19.332Z,151.57
2018-11-22T20:17:48.365Z,167.75
2018-11-22T20:20:18.309Z,162.40
2018-11-22T20:22:46.925Z,166.45
2018-11-22T20:25:15.179Z,164.50
2018-11-22T20:27:43.789Z,155.18
2018-11-22T20:30:35.954Z,154.87
2018-11-22T20:33:04.486Z,151.18
2018-11-22T20:35:32.859Z,152.25
2018-11-22T20:38:01.402Z,142.50
2018-11-22T20:40:30.264Z,148.82
2018-11-22T20:42:59.354Z,147.30
2018-11-22T20:45:28.209Z,146.30
2018-11-22T20:48:16.125Z,146.57
2018-11-22T20:50:44.382Z,137.57
2018-11-22T20:53:12.972Z,128.62
2018-11-22T20:55:41.542Z,137.70
2018-11-22T20:58:10.447Z,134.37
2018-11-22T21:00:40.694Z,147.40
2018-11-22T21:03:28.556Z,138.77
2018-11-22T21:05:56.821Z,141.32
2018-11-22T21:08:25.086Z,143.70
2018-11-22T21:10:53.640Z,139.82
2018-11-22T21:13:22.635Z,138.05
2018-11-22T21:15:50.850Z,136.45
2018-11-22T21:18:19.761Z,114.50
2018-11-22T21:20:48.377Z,127.78
2018-11-22T21:23:17.160Z,114.65
2018-11-22T21:25:45.447Z,115.08
2018-11-22T21:28:13.665Z,121.33
2018-11-22T21:30:41.922Z,122.80
2018-11-22T21:33:11.039Z,115.55
2018-11-22T21:35:39.855Z,118.37
2018-11-22T21:38:08.739Z,102.02
2018-11-22T21:40:56.361Z,109.20
2018-11-22T21:43:24.596Z,116.88
2018-11-22T21:45:52.844Z,112.32
2018-11-22T21:48:21.328Z,114.37
2018-11-22T21:50:49.584Z,116.22
2018-11-22T21:53:18.137Z,127.20
2018-11-22T21:55:46.348Z,127.67
2018-11-22T21:58:15.212Z,118.10
2018-11-22T22:00:43.802Z,108.52
2018-11-22T22:03:12.269Z,114.45
2018-11-22T22:05:41.364Z,111.52
2018-11-22T22:08:09.624Z,108.25
2018-11-22T22:10:37.918Z,132.82
2018-11-22T22:13:06.479Z,108.05
2018-11-22T22:15:35.621Z,105.15
2018-11-22T22:18:03.876Z,113.28
2018-11-22T22:20:34.612Z,104.10
2018-11-22T22:23:03.176Z,107.97
2018-11-22T22:25:31.870Z,90.85
2018-11-22T22:28:00.554Z,105.95
2018-11-22T22:30:30.470Z,112.10
2018-11-22T22:33:00.843Z,104.87
2018-11-22T22:35:29.078Z,112.12
2018-11-22T22:37:57.359Z,111.72
2018-11-22T22:40:29.242Z,112.55
2018-11-22T22:42:58.126Z,109.52
2018-11-22T22:45:27.801Z,117.75
2018-11-22T22:47:56.989Z,111.03
2018-11-22T22:50:26.386Z,112.75
2018-11-22T22:52:56.370Z,115.37
2018-11-22T22:55:25.474Z,108.00
2018-11-22T22:57:53.701Z,130.72
2018-11-22T23:00:47.442Z,121.00
2018-11-22T23:03:15.829Z,106.65
2018-11-22T23:05:44.073Z,122.80
2018-11-22T23:08:12.562Z,127.00
2018-11-22T23:10:41.075Z,116.12
2018-11-22T23:13:28.710Z,120.13
2018-11-22T23:15:56.962Z,113.32
2018-11-22T23:18:25.172Z,119.22
2018-11-22T23:20:54.099Z,118.90
2018-11-22T23:23:22.346Z,110.75
2018-11-22T23:25:51.304Z,128.30
2018-11-22T23:28:19.896Z,116.15
2018-11-22T23:30:48.435Z,123.22
2018-11-22T23:33:17.028Z,111.97
2018-11-22T23:35:46.414Z,114.28
2018-11-22T23:38:14.958Z,128.40
2018-11-22T23:40:44.075Z,118.50
2018-11-22T23:43:12.811Z,137.37
2018-11-22T23:45:41.925Z,128.10
2018-11-22T23:48:10.411Z,132.43
2018-11-22T23:50:38.653Z,128.47
2018-11-22T23:53:07.228Z,127.55
2018-11-22T23:55:43.187Z,129.53
2018-11-22T23:58:12.140Z,134.00
